createdAt,value
2023-05-05T00:00:21.874Z,98828.66
2023-05-05T00:05:49.139Z,98825.23
2023-05-05T00:10:56.481Z,98823.54
2023-05-05T00:16:03.582Z,98818.94
2023-05-05T00:21:10.822Z,98813.59
2023-05-05T00:26:18.131Z,98808.08
2023-05-05T00:31:25.274Z,98801.02
2023-05-05T00:36:32.990Z,98797.09
2023-05-05T00:41:40.030Z,98791.66
2023-05-05T00:46:47.362Z,98784.94
2023-05-05T00:51:54.924Z,98784.38
2023-05-05T00:57:02.504Z,98780.66
2023-05-05T01:02:09.757Z,98786.33
2023-05-05T01:07:24.188Z,98793.38
2023-05-05T01:12:38.810Z,98795.90
2023-05-05T01:17:52.301Z,98786.98
2023-05-05T01:23:01.668Z,98779.25
2023-05-05T01:28:21.632Z,98768.67
2023-05-05T01:33:31.062Z,98773.56
2023-05-05T01:38:40.787Z,98771.52
2023-05-05T01:43:48.864Z,98772.45
2023-05-05T01:48:56.683Z,98771.67
2023-05-05T01:54:06.576Z,98774.15
2023-05-05T01:59:15.033Z,98775.94
2023-05-05T02:04:23.422Z,98782.34
2023-05-05T02:09:31.818Z,98777.29
2023-05-05T02:14:39.403Z,98780.77
2023-05-05T02:19:47.711Z,98777.46
2023-05-05T02:24:55.667Z,98769.10
2023-05-05T02:30:05.117Z,98765.39
2023-05-05T02:35:24.795Z,98764.67
2023-05-05T02:40:33.059Z,98759.14
2023-05-05T02:45:40.027Z,98763.01
2023-05-05T02:50:46.967Z,98765.79
2023-05-05T02:55:55.534Z,98764.70
2023-05-05T03:01:08.398Z,98763.27
2023-05-05T03:06:16.818Z,98750.86
2023-05-05T03:11:28.265Z,98749.07
2023-05-05T03:16:37.207Z,98756.48
2023-05-05T03:21:45.158Z,98757.28
2023-05-05T03:26:52.526Z,98762.73
2023-05-05T03:32:01.444Z,98761.88
2023-05-05T03:37:08.505Z,98757.58
2023-05-05T03:42:15.659Z,98761.71
2023-05-05T03:47:25.014Z,98759.56
2023-05-05T03:52:32.333Z,98756.64
2023-05-05T03:57:39.962Z,98754.44
2023-05-05T04:02:47.174Z,98754.42
2023-05-05T04:07:54.685Z,98759.44
2023-05-05T04:13:02.217Z,98763.77
2023-05-05T04:18:09.760Z,98771.05
2023-05-05T04:23:17.416Z,98777.20
2023-05-05T04:28:24.816Z,98777.52
2023-05-05T04:33:32.210Z,98781.52
2023-05-05T04:38:39.466Z,98785.40
2023-05-05T04:43:46.886Z,98782.46
2023-05-05T04:48:54.407Z,98787.06
2023-05-05T04:54:01.889Z,98789.67
2023-05-05T04:59:09.387Z,98789.59
2023-05-05T05:04:18.880Z,98797.95
2023-05-05T05:09:25.877Z,98802.75
2023-05-05T05:14:38.128Z,98803.92
2023-05-05T05:19:45.145Z,98804.23
2023-05-05T05:24:52.566Z,98815.19
2023-05-05T05:29:59.740Z,98818.67
2023-05-05T05:35:07.416Z,98826.98
2023-05-05T05:40:15.275Z,98835.26
2023-05-05T05:45:22.758Z,98840.88
2023-05-05T05:50:30.003Z,98841.95
2023-05-05T05:55:37.254Z,98839.21
2023-05-05T06:00:44.405Z,98841.62
2023-05-05T06:05:52.241Z,98836.90
2023-05-05T06:11:00.911Z,98833.23
2023-05-05T06:16:08.675Z,98832.09
2023-05-05T06:21:15.964Z,98828.95
2023-05-05T06:26:23.565Z,98832.81
2023-05-05T06:31:31.330Z,98833.86
2023-05-05T06:36:39.024Z,98842.78
2023-05-05T06:41:46.560Z,98841.73
2023-05-05T06:46:53.849Z,98835.04
2023-05-05T06:52:00.831Z,98829.61
2023-05-05T06:57:08.302Z,98831.86
2023-05-05T07:02:15.552Z,98832.52
2023-05-05T07:07:22.988Z,98828.45
2023-05-05T07:12:31.210Z,98830.06
2023-05-05T07:17:38.764Z,98826.46
2023-05-05T07:22:46.175Z,98825.43
2023-05-05T07:27:53.448Z,98815.61
2023-05-05T07:33:00.632Z,98811.55
2023-05-05T07:38:10.179Z,98816.83
2023-05-05T07:43:18.235Z,98812.83
2023-05-05T07:48:25.612Z,98810.71
2023-05-05T07:53:33.244Z,98811.02
2023-05-05T07:58:41.333Z,98806.52
2023-05-05T08:03:48.586Z,98803.63
2023-05-05T08:08:56.125Z,98803.74
2023-05-05T08:14:03.334Z,98800.47
2023-05-05T08:19:21.106Z,98799.02
2023-05-05T08:24:32.530Z,98800.89
2023-05-05T08:29:39.526Z,98803.31
2023-05-05T08:34:46.978Z,98806.46
2023-05-05T08:39:54.384Z,98796.09
2023-05-05T08:45:02.170Z,98791.79
2023-05-05T08:50:11.802Z,98792.78
2023-05-05T08:55:22.733Z,98785.79
2023-05-05T09:00:30.256Z,98784.11
2023-05-05T09:05:37.704Z,98784.14
2023-05-05T09:10:45.371Z,98783.72
2023-05-05T09:15:52.534Z,98783.23
2023-05-05T09:21:00.854Z,98778.89
2023-05-05T09:26:09.823Z,98778.47
2023-05-05T09:31:17.466Z,98773.23
2023-05-05T09:36:42.736Z,98771.32
2023-05-05T09:41:50.215Z,98767.81
2023-05-05T09:46:58.659Z,98772.83
2023-05-05T09:52:13.577Z,98774.23
2023-05-05T09:57:31.234Z,98774.39
2023-05-05T10:02:40.718Z,98776.83
2023-05-05T10:07:48.752Z,98768.98
2023-05-05T10:12:56.149Z,98767.35
2023-05-05T10:18:08.263Z,98766.52
2023-05-05T10:23:17.022Z,98766.67
2023-05-05T10:28:31.030Z,98762.88
2023-05-05T10:33:42.463Z,98754.84
2023-05-05T10:38:52.486Z,98756.91
2023-05-05T10:44:02.788Z,98752.89
2023-05-05T10:49:16.968Z,98744.20
2023-05-05T10:54:26.653Z,98742.25
2023-05-05T10:59:46.941Z,98745.35
2023-05-05T11:05:11.204Z,98734.77
2023-05-05T11:10:19.253Z,98735.55
2023-05-05T11:15:39.377Z,98729.31
2023-05-05T11:21:00.097Z,98722.21
2023-05-05T11:26:07.896Z,98723.72
2023-05-05T11:31:21.735Z,98722.77
2023-05-05T11:36:42.125Z,98719.92
2023-05-05T11:41:56.786Z,98722.07
2023-05-05T11:47:20.976Z,98717.00
2023-05-05T11:52:29.103Z,98712.94
2023-05-05T11:57:36.231Z,98715.45
2023-05-05T12:02:43.458Z,98712.30
2023-05-05T12:07:58.515Z,98707.31
2023-05-05T12:13:05.809Z,98707.64
2023-05-05T12:18:21.589Z,98707.98
2023-05-05T12:23:30.541Z,98708.99
2023-05-05T12:28:46.972Z,98707.34
2023-05-05T12:33:54.506Z,98703.20
2023-05-05T12:39:02.184Z,98701.27
2023-05-05T12:44:09.683Z,98700.39
2023-05-05T12:49:16.966Z,98702.63
2023-05-05T12:54:25.201Z,98701.20
2023-05-05T12:59:32.497Z,98690.52
2023-05-05T13:04:49.995Z,98680.46
2023-05-05T13:10:08.432Z,98678.24
2023-05-05T13:15:16.249Z,98670.90
2023-05-05T13:20:23.432Z,98669.73
2023-05-05T13:25:30.677Z,98670.49
2023-05-05T13:30:37.975Z,98667.98
2023-05-05T13:35:45.309Z,98667.18
2023-05-05T13:40:52.831Z,98656.34
2023-05-05T13:46:12.189Z,98647.48
2023-05-05T13:51:24.384Z,98645.98
2023-05-05T13:56:31.885Z,98645.33
2023-05-05T14:01:39.192Z,98638.32
2023-05-05T14:06:46.654Z,98629.70
2023-05-05T14:11:54.210Z,98633.35
2023-05-05T14:17:01.387Z,98626.70
2023-05-05T14:22:08.471Z,98625.58
2023-05-05T14:27:15.676Z,98630.88
2023-05-05T14:32:23.426Z,98636.24
2023-05-05T14:37:30.890Z,98632.61
2023-05-05T14:42:38.559Z,98634.27
2023-05-05T14:47:45.974Z,98634.75
2023-05-05T14:52:53.575Z,98626.52
2023-05-05T14:58:01.034Z,98631.70
2023-05-05T15:03:08.253Z,98630.45
2023-05-05T15:08:17.365Z,98627.34
2023-05-05T15:13:25.072Z,98634.48
2023-05-05T15:18:32.553Z,98627.50
2023-05-05T15:23:40.083Z,98625.63
2023-05-05T15:28:49.713Z,98622.16
2023-05-05T15:33:58.082Z,98621.73
2023-05-05T15:39:05.293Z,98616.91
2023-05-05T15:44:13.323Z,98616.13
2023-05-05T15:49:20.374Z,98615.02
2023-05-05T15:54:27.394Z,98610.10
2023-05-05T15:59:35.412Z,98607.36
2023-05-05T16:04:43.064Z,98606.55
2023-05-05T16:09:50.513Z,98603.70
2023-05-05T16:14:57.654Z,98603.45
2023-05-05T16:20:05.035Z,98608.51
2023-05-05T16:25:12.629Z,98606.55
2023-05-05T16:30:19.663Z,98610.48
2023-05-05T16:35:26.913Z,98612.57
2023-05-05T16:40:34.134Z,98613.74
2023-05-05T16:45:41.401Z,98613.63
2023-05-05T16:50:48.822Z,98612.77
2023-05-05T16:55:56.513Z,98613.88
2023-05-05T17:01:04.502Z,98615.61
2023-05-05T17:06:13.409Z,98617.53
2023-05-05T17:11:20.521Z,98619.80
2023-05-05T17:16:28.099Z,98616.57
2023-05-05T17:21:35.595Z,98614.68
2023-05-05T17:26:42.725Z,98628.73
2023-05-05T17:31:50.629Z,98631.20
2023-05-05T17:36:58.254Z,98637.05
2023-05-05T17:42:05.852Z,98643.13
2023-05-05T17:47:13.314Z,98641.63
2023-05-05T17:52:20.753Z,98638.38
2023-05-05T17:57:28.034Z,98634.98
2023-05-05T18:02:37.126Z,98638.02
2023-05-05T18:07:44.515Z,98641.78
2023-05-05T18:12:51.869Z,98641.15
2023-05-05T18:17:59.338Z,98639.71
2023-05-05T18:23:06.749Z,98643.13
2023-05-05T18:28:14.299Z,98647.55
2023-05-05T18:33:21.635Z,98646.60
2023-05-05T18:38:29.237Z,98648.20
2023-05-05T18:43:36.663Z,98645.59
2023-05-05T18:48:44.616Z,98657.27
2023-05-05T18:53:51.997Z,98659.53
2023-05-05T18:58:59.558Z,98658.23
2023-05-05T19:04:15.572Z,98658.80
2023-05-05T19:09:30.337Z,98661.55
2023-05-05T19:14:37.916Z,98659.98
2023-05-05T19:19:45.263Z,98658.02
2023-05-05T19:24:52.845Z,98657.94
2023-05-05T19:30:00.271Z,98657.39
2023-05-05T19:35:10.760Z,98656.36
2023-05-05T19:40:18.400Z,98654.70
2023-05-05T19:45:25.673Z,98657.87
2023-05-05T19:50:33.094Z,98653.18
2023-05-05T19:55:40.550Z,98653.80
2023-05-05T20:00:48.062Z,98651.59
2023-05-05T20:05:55.603Z,98653.73
2023-05-05T20:11:02.756Z,98650.80
2023-05-05T20:16:10.285Z,98647.66
2023-05-05T20:21:18.302Z,98641.41
2023-05-05T20:26:26.140Z,98640.14
2023-05-05T20:31:35.317Z,98641.02
2023-05-05T20:36:42.545Z,98644.48
2023-05-05T20:41:49.814Z,98637.45
2023-05-05T20:46:57.507Z,98630.27
2023-05-05T20:52:05.176Z,98629.75
2023-05-05T20:57:12.781Z,98628.23
2023-05-05T21:02:20.149Z,98632.14
2023-05-05T21:07:27.705Z,98636.48
2023-05-05T21:12:35.624Z,98632.80
2023-05-05T21:17:42.626Z,98631.05
2023-05-05T21:22:49.924Z,98628.98
2023-05-05T21:27:57.202Z,98630.89
2023-05-05T21:33:04.742Z,98639.04
2023-05-05T21:38:12.255Z,98630.18
2023-05-05T21:43:19.838Z,98623.79
2023-05-05T21:48:27.486Z,98615.09
2023-05-05T21:53:34.816Z,98608.07
2023-05-05T21:58:42.320Z,98612.77
2023-05-05T22:03:49.606Z,98606.89
2023-05-05T22:08:58.256Z,98606.23
2023-05-05T22:14:05.450Z,98600.09
2023-05-05T22:19:12.480Z,98602.33
2023-05-05T22:24:19.862Z,98600.49
2023-05-05T22:29:27.539Z,98594.89
2023-05-05T22:34:35.869Z,98600.02
2023-05-05T22:39:43.336Z,98601.36
2023-05-05T22:44:50.512Z,98598.36
2023-05-05T22:49:58.199Z,98596.30
2023-05-05T22:55:05.711Z,98593.37
2023-05-05T23:00:13.574Z,98578.76
2023-05-05T23:05:20.716Z,98572.26
2023-05-05T23:10:28.072Z,98572.60
2023-05-05T23:15:35.545Z,98571.80
2023-05-05T23:20:42.563Z,98570.94
2023-05-05T23:25:50.136Z,98571.54
2023-05-05T23:30:57.544Z,98573.77
2023-05-05T23:36:04.847Z,98573.92
2023-05-05T23:41:12.192Z,98578.30
2023-05-05T23:46:19.471Z,98571.42
2023-05-05T23:51:27.680Z,98573.14
2023-05-05T23:56:34.891Z,98557.02
